Time;durP1;ratioP1;P1;durP2;ratioP2;P2;SDS_P1;SDS_P2;PMS_P1;PMS_P2;Temp;Humidity;BMP_temperature;BMP_pressure;BME280_temperature;BME280_humidity;BME280_pressure;Samples;Min_cycle;Max_cycle;Signal;HPM_P1;HPM_P2
2022/07/15 00:00:06;;;;;;;18.52;2.15;;;;;;;23.14;58.59;99650.69;7316830;19;129033;-40
2022/07/15 00:02:32;;;;;;;27.13;2.85;;;;;;;23.13;57.69;99649.06;7316031;19;129638;-39
2022/07/15 00:04:57;;;;;;;12.45;1.77;;;;;;;23.15;57.71;99652.38;7315282;19;128979;-40
2022/07/15 00:07:23;;;;;;;26.73;3.13;;;;;;;23.13;58.29;99646.44;7316413;19;129319;-39
2022/07/15 00:12:33;;;;;;;21.50;2.28;;;;;;;23.13;58.18;99647.28;7316126;19;129323;-38
2022/07/15 00:14:59;;;;;;;18.63;2.10;;;;;;;23.13;58.34;99643.81;7314948;19;130468;-37
2022/07/15 00:17:24;;;;;;;21.00;2.17;;;;;;;23.06;57.87;99634.88;7317476;19;129624;-38
2022/07/15 00:19:49;;;;;;;26.33;2.58;;;;;;;23.14;57.73;99650.69;7315081;19;129069;-40
2022/07/15 00:22:16;;;;;;;18.83;2.03;;;;;;;23.13;58.56;99643.81;7316050;19;129628;-39
2022/07/15 00:24:41;;;;;;;21.42;2.75;;;;;;;23.12;57.80;99652.66;7314901;19;129702;-38
2022/07/15 00:27:06;;;;;;;22.75;2.13;;;;;;;23.13;58.14;99651.69;7316470;19;129268;-37
2022/07/15 00:29:32;;;;;;;24.88;2.67;;;;;;;23.11;57.75;99640.50;7315788;19;130874;-40
2022/07/15 00:31:58;;;;;;;22.80;2.42;;;;;;;23.08;57.82;99646.06;7312527;19;129274;-37
2022/07/15 00:34:23;;;;;;;28.95;3.13;;;;;;;23.12;58.22;99650.03;7314167;19;130134;-37
2022/07/15 00:36:49;;;;;;;22.27;2.63;;;;;;;23.11;58.00;99645.75;7313602;19;129617;-38
2022/07/15 00:39:16;;;;;;;24.60;2.83;;;;;;;23.12;57.97;99652.66;7311057;19;129202;-38
2022/07/15 00:41:43;;;;;;;25.02;2.45;;;;;;;23.12;58.63;99647.44;7314891;19;129377;-39
2022/07/15 00:44:09;;;;;;;25.60;2.60;;;;;;;23.11;57.96;99643.97;7310399;19;129079;-39
2022/07/15 00:46:35;;;;;;;24.10;2.58;;;;;;;23.12;58.46;99647.44;7315194;19;129439;-36
2022/07/15 00:49:04;;;;;;;28.80;2.97;;;;;;;23.13;58.23;99644.66;7311502;19;129262;-40
2022/07/15 00:51:49;;;;;;;36.45;3.90;;;;;;;23.14;60.73;99650.69;7311794;19;129443;-38
2022/07/15 00:54:17;;;;;;;26.92;2.72;;;;;;;23.12;59.00;99647.44;7310959;19;129305;-40
2022/07/15 00:56:51;;;;;;;18.83;2.00;;;;;;;23.03;60.08;99632.56;7315027;19;129622;-38
2022/07/15 00:59:19;;;;;;;18.73;2.13;;;;;;;23.12;58.15;99644.81;7316583;19;129346;-36
2022/07/15 01:01:47;;;;;;;24.92;2.50;;;;;;;23.11;59.12;99640.50;7314431;19;129223;-37
2022/07/15 01:04:13;;;;;;;25.70;2.67;;;;;;;23.10;57.92;99644.94;7312718;19;129690;-40
2022/07/15 01:06:39;;;;;;;13.43;1.60;;;;;;;23.09;58.67;99645.91;7314554;19;130459;-38
2022/07/15 01:09:05;;;;;;;23.13;2.33;;;;;;;23.09;58.20;99642.44;7313406;19;129604;-37
2022/07/15 01:11:31;;;;;;;42.63;4.07;;;;;;;23.02;58.84;99630.94;7314545;19;129277;-38
2022/07/15 01:14:00;;;;;;;41.05;4.00;;;;;;;23.11;59.36;99651.00;7311418;19;131112;-38
2022/07/15 01:16:26;;;;;;;16.83;1.77;;;;;;;23.10;57.77;99652.00;7315752;19;130761;-38
2022/07/15 01:18:52;;;;;;;15.53;1.87;;;;;;;23.11;58.47;99651.84;7314836;19;129255;-38
2022/07/15 01:21:18;;;;;;;15.10;1.98;;;;;;;23.11;57.88;99658.88;7315723;19;129289;-38
2022/07/15 01:23:44;;;;;;;19.13;2.20;;;;;;;23.11;58.50;99656.25;7311829;19;130175;-39
2022/07/15 01:26:13;;;;;;;24.27;2.38;;;;;;;23.10;59.29;99655.44;7312467;19;129857;-37
2022/07/15 01:28:40;;;;;;;20.33;2.25;;;;;;;23.11;58.93;99661.50;7314775;19;129021;-39
2022/07/15 01:31:05;;;;;;;23.83;2.35;;;;;;;23.11;58.15;99656.25;7315147;19;128964;-37
2022/07/15 01:33:32;;;;;;;19.15;2.10;;;;;;;23.11;58.74;99651.00;7312607;19;130099;-38
2022/07/15 01:35:58;;;;;;;9.20;1.45;;;;;;;23.11;58.97;99661.50;7314510;19;130474;-38
2022/07/15 01:38:24;;;;;;;33.80;3.33;;;;;;;23.03;58.42;99648.28;7312568;19;129528;-37
2022/07/15 01:40:49;;;;;;;16.10;1.98;;;;;;;23.12;58.28;99657.91;7314760;19;129963;-38
2022/07/15 01:43:15;;;;;;;25.83;2.67;;;;;;;23.03;58.21;99643.06;7312464;19;131351;-38
2022/07/15 01:45:45;;;;;;;27.00;2.90;;;;;;;23.02;59.37;99649.28;7311317;19;129651;-37
2022/07/15 01:49:21;;;;;;;24.85;2.38;;;;;;;23.11;58.53;99659.69;7313148;19;129168;-41
2022/07/15 01:50:58;;;;;;;34.17;3.80;;;;;;;23.10;59.00;99659.84;7306647;19;129724;-38
2022/07/15 01:53:25;;;;;;;15.00;1.55;;;;;;;23.11;58.41;99666.75;7311902;19;129717;-38
2022/07/15 01:55:50;;;;;;;23.80;2.38;;;;;;;23.09;58.32;99666.06;7311232;19;129270;-39
2022/07/15 01:58:16;;;;;;;20.00;2.10;;;;;;;23.03;58.41;99667.50;7309565;19;129144;-38
2022/07/15 02:00:42;;;;;;;26.10;2.73;;;;;;;23.01;58.31;99666.81;7314991;19;129016;-40
2022/07/15 02:03:07;;;;;;;18.98;1.80;;;;;;;23.11;58.63;99677.22;7309819;19;129345;-38
2022/07/15 02:05:34;;;;;;;16.58;1.95;;;;;;;23.11;58.67;99679.84;7314499;19;129895;-38
2022/07/15 02:08:00;;;;;;;23.80;2.15;;;;;;;23.11;58.82;99679.84;7313223;19;128958;-38
2022/07/15 02:10:25;;;;;;;15.30;1.73;;;;;;;23.10;57.95;99680.84;7312233;19;129129;-38
2022/07/15 02:12:51;;;;;;;28.10;2.80;;;;;;;23.10;58.07;99680.84;7311053;19;129373;-39
2022/07/15 02:15:16;;;;;;;15.18;1.83;;;;;;;23.10;58.12;99680.84;7313042;19;129561;-38
2022/07/15 02:17:41;;;;;;;15.57;1.85;;;;;;;23.10;58.22;99670.34;7313343;19;128882;-38
2022/07/15 02:20:07;;;;;;;19.25;1.92;;;;;;;23.11;57.99;99682.47;7312377;19;128814;-39
2022/07/15 02:22:33;;;;;;;20.40;2.20;;;;;;;23.06;58.22;99668.97;7311876;19;130237;-39
2022/07/15 02:24:58;;;;;;;16.67;1.75;;;;;;;23.12;58.44;99684.16;7310336;19;129901;-38
2022/07/15 02:27:24;;;;;;;16.27;1.60;;;;;;;23.12;58.37;99678.91;7313269;19;129601;-37
2022/07/15 02:29:49;;;;;;;29.70;2.75;;;;;;;23.11;58.41;99687.72;7312947;19;130758;-39
2022/07/15 02:32:14;;;;;;;17.40;1.77;;;;;;;23.12;58.53;99684.16;7311763;19;129335;-39
2022/07/15 02:34:40;;;;;;;12.13;1.53;;;;;;;23.09;58.73;99685.25;7313390;19;129725;-39
2022/07/15 02:37:05;;;;;;;15.88;1.67;;;;;;;23.11;58.42;99691.19;7313607;19;129214;-39
2022/07/15 02:39:31;;;;;;;17.23;1.77;;;;;;;23.11;58.61;99687.72;7313231;19;129401;-40
2022/07/15 02:41:56;;;;;;;18.08;1.73;;;;;;;23.05;58.47;99680.44;7312292;19;129652;-38
2022/07/15 02:44:21;;;;;;;18.23;1.88;;;;;;;23.11;58.71;99696.41;7309703;19;129820;-39
2022/07/15 02:46:47;;;;;;;17.92;1.83;;;;;;;23.10;58.47;99701.81;7313492;19;128834;-40
2022/07/15 02:49:12;;;;;;;25.85;2.58;;;;;;;23.11;58.01;99692.97;7308197;19;129120;-38
2022/07/15 02:51:38;;;;;;;27.83;2.83;;;;;;;23.04;58.48;99686.66;7311239;19;129628;-40
2022/07/15 02:54:03;;;;;;;18.65;1.80;;;;;;;23.11;58.38;99703.44;7309769;19;129881;-38
2022/07/15 02:56:28;;;;;;;21.30;2.08;;;;;;;23.11;58.26;99698.22;7311697;19;128875;-37
2022/07/15 02:58:54;;;;;;;15.80;1.87;;;;;;;23.11;58.52;99704.28;7312147;19;129612;-38
2022/07/15 03:01:19;;;;;;;44.33;4.20;;;;;;;23.03;58.19;99695.50;7309476;19;129033;-40
2022/07/15 03:03:45;;;;;;;23.35;2.25;;;;;;;23.11;58.50;99706.06;7308885;19;129890;-38
2022/07/15 03:06:10;;;;;;;20.90;2.08;;;;;;;23.12;58.76;99711.16;7312328;19;129210;-40
2022/07/15 03:08:36;;;;;;;18.53;1.97;;;;;;;23.12;58.50;99710.38;7311351;19;129367;-38
2022/07/15 03:11:01;;;;;;;18.57;2.03;;;;;;;23.12;57.91;99707.75;7312020;19;130169;-38
2022/07/15 03:13:26;;;;;;;28.85;3.10;;;;;;;23.11;58.58;99713.94;7309338;19;129658;-39
2022/07/15 03:15:52;;;;;;;21.07;2.10;;;;;;;23.11;58.52;99719.19;7313517;19;128933;-39
2022/07/15 03:18:17;;;;;;;25.33;2.40;;;;;;;23.11;58.09;99720.03;7308465;19;130314;-38
2022/07/15 03:20:45;;;;;;;20.67;2.15;;;;;;;23.11;58.26;99729.69;7310358;19;130214;-41
2022/07/15 03:23:11;;;;;;;7.35;1.10;;;;;;;23.11;58.24;99732.31;7309112;19;130980;-38
2022/07/15 03:25:36;;;;;;;18.63;2.00;;;;;;;23.11;58.40;99730.50;7307428;19;128867;-39
2022/07/15 03:28:02;;;;;;;13.90;1.67;;;;;;;23.10;58.98;99728.03;7311146;19;129072;-38
2022/07/15 03:30:28;;;;;;;21.47;2.17;;;;;;;23.11;58.47;99737.56;7310649;19;130311;-40
2022/07/15 03:32:54;;;;;;;18.50;2.00;;;;;;;23.12;58.00;99739.22;7309092;19;130708;-39
2022/07/15 03:35:19;;;;;;;20.30;2.00;;;;;;;23.04;58.72;99728.59;7311524;19;129302;-38
2022/07/15 03:37:44;;;;;;;21.00;1.88;;;;;;;23.11;58.59;99740.16;7310782;19;129389;-39
2022/07/15 03:40:10;;;;;;;20.90;2.05;;;;;;;23.04;58.15;99723.34;7310221;19;130581;-37
2022/07/15 03:42:35;;;;;;;21.65;2.10;;;;;;;23.11;58.18;99737.56;7309614;19;129978;-39
2022/07/15 03:45:01;;;;;;;17.80;1.73;;;;;;;23.11;58.10;99745.41;7309060;19;128975;-38
2022/07/15 03:47:28;;;;;;;19.55;1.92;;;;;;;23.10;58.10;99742.00;7311016;19;129592;-38
2022/07/15 03:49:54;;;;;;;17.73;1.77;;;;;;;23.11;58.30;99750.66;7308482;19;130323;-39
2022/07/15 03:52:19;;;;;;;24.27;2.20;;;;;;;23.11;58.51;99758.53;7315727;19;130447;-38
2022/07/15 03:54:44;;;;;;;9.20;1.25;;;;;;;23.10;58.02;99751.66;7317461;19;129694;-38
2022/07/15 03:57:10;;;;;;;38.03;3.83;;;;;;;23.10;58.59;99754.28;7316723;19;129534;-39
2022/07/15 03:59:35;;;;;;;14.40;1.47;;;;;;;23.08;58.48;99746.53;7317029;19;130205;-38
2022/07/15 04:02:00;;;;;;;20.88;2.15;;;;;;;23.10;58.14;99754.28;7316401;19;129567;-38
2022/07/15 04:04:26;;;;;;;19.23;1.87;;;;;;;23.09;58.79;99757.84;7315069;19;129002;-39
2022/07/15 04:06:51;;;;;;;26.10;2.37;;;;;;;23.03;58.11;99747.94;7317478;19;129618;-39
2022/07/15 04:09:17;;;;;;;22.70;2.20;;;;;;;23.10;58.31;99764.75;7314637;19;130045;-38
2022/07/15 04:11:42;;;;;;;25.38;2.65;;;;;;;23.10;58.28;99765.59;7314727;19;130298;-39
2022/07/15 04:14:10;;;;;;;25.10;2.33;;;;;;;23.10;58.50;99764.75;7310017;19;128882;-39
2022/07/15 04:16:35;;;;;;;15.45;1.48;;;;;;;23.10;58.25;99770.84;7317190;19;128618;-39
2022/07/15 04:19:01;;;;;;;21.17;2.08;;;;;;;23.10;58.92;99770.00;7309262;19;130106;-40
2022/07/15 04:21:26;;;;;;;34.13;3.47;;;;;;;23.10;58.36;99764.75;7311671;19;131357;-39
2022/07/15 04:23:52;;;;;;;25.05;2.25;;;;;;;23.11;57.99;99779.50;7314504;19;129112;-38
2022/07/15 04:26:17;;;;;;;25.60;2.55;;;;;;;23.11;58.84;99774.25;7315413;19;129315;-38
2022/07/15 04:28:42;;;;;;;19.05;1.80;;;;;;;23.10;58.14;99770.00;7315422;19;129020;-40
2022/07/15 04:31:08;;;;;;;23.23;2.30;;;;;;;23.11;58.65;99780.34;7313631;19;129395;-39
2022/07/15 04:33:33;;;;;;;15.90;1.53;;;;;;;23.11;58.62;99792.63;7308800;19;130004;-39
2022/07/15 04:35:59;;;;;;;39.60;4.13;;;;;;;23.12;58.28;99789.03;7307911;19;130906;-38
2022/07/15 04:38:24;;;;;;;23.57;2.00;;;;;;;23.09;58.28;99789.31;7315737;19;129186;-38
2022/07/15 04:40:49;;;;;;;28.00;2.92;;;;;;;23.11;58.11;99792.63;7314141;19;129505;-37
2022/07/15 04:43:15;;;;;;;24.65;2.42;;;;;;;23.09;58.76;99784.06;7310378;19;129464;-39
2022/07/15 04:45:40;;;;;;;16.50;1.67;;;;;;;23.10;58.39;99793.59;7310487;19;129190;-37
2022/07/15 04:50:45;;;;;;;21.63;2.00;;;;;;;23.11;58.66;99790.84;7313358;19;129532;-40
2022/07/15 04:50:52;;;;;;;25.85;2.45;;;;;;;23.10;58.01;99796.22;7312475;19;130158;-36
2022/07/15 04:53:19;;;;;;;19.97;2.00;;;;;;;23.10;57.98;99790.97;7313135;19;130612;-38
2022/07/15 04:55:45;;;;;;;29.83;2.70;;;;;;;23.10;58.24;99797.06;7315351;19;129874;-39
2022/07/15 04:58:10;;;;;;;14.27;1.65;;;;;;;23.06;58.52;99794.84;7315386;19;129385;-38
2022/07/15 05:00:36;;;;;;;48.70;4.70;;;;;;;23.10;58.47;99807.56;7310723;19;129983;-38
2022/07/15 05:03:04;;;;;;;17.20;1.63;;;;;;;23.11;58.60;99808.34;7311997;19;129056;-41
2022/07/15 05:05:29;;;;;;;20.73;2.05;;;;;;;23.09;58.23;99815.53;7313115;19;129730;-40
2022/07/15 05:07:55;;;;;;;24.17;2.45;;;;;;;23.04;58.76;99804.66;7310527;19;130307;-38
2022/07/15 05:10:20;;;;;;;27.02;2.45;;;;;;;23.10;58.43;99822.44;7312021;19;130465;-39
2022/07/15 05:12:45;;;;;;;15.15;1.48;;;;;;;23.06;58.54;99815.81;7304204;19;129401;-38
2022/07/15 05:15:11;;;;;;;25.05;2.33;;;;;;;23.10;58.22;99832.94;7314057;19;129228;-38
2022/07/15 05:17:39;;;;;;;15.57;1.67;;;;;;;23.10;58.00;99833.78;7308740;19;130093;-40
2022/07/15 05:20:04;;;;;;;28.58;2.95;;;;;;;23.10;58.12;99833.78;7313617;19;129320;-40
2022/07/15 05:22:30;;;;;;;20.95;2.10;;;;;;;23.10;58.03;99832.94;7312938;19;129007;-39
2022/07/15 05:24:55;;;;;;;20.67;1.98;;;;;;;23.10;58.55;99843.44;7310635;19;130272;-39
2022/07/15 05:27:21;;;;;;;9.83;1.30;;;;;;;23.10;58.68;99835.56;7308756;19;130269;-41
2022/07/15 05:29:46;;;;;;;21.25;2.05;;;;;;;23.08;58.40;99845.38;7312163;19;130622;-39
2022/07/15 05:32:11;;;;;;;68.35;7.18;;;;;;;23.10;58.09;99848.69;7308314;19;129637;-39
2022/07/15 05:34:37;;;;;;;21.73;2.40;;;;;;;23.10;58.68;99856.53;7312904;19;128855;-39
2022/07/15 05:37:02;;;;;;;29.27;2.65;;;;;;;23.03;58.23;99843.19;7309632;19;130527;-39
2022/07/15 05:39:28;;;;;;;17.63;1.90;;;;;;;23.09;57.75;99853.09;7314286;19;129368;-40
2022/07/15 05:41:54;;;;;;;26.15;2.38;;;;;;;23.10;58.29;99867.03;7312463;19;129317;-41
2022/07/15 05:44:19;;;;;;;15.37;1.60;;;;;;;23.10;58.30;99872.28;7311927;19;128876;-40
2022/07/15 05:46:45;;;;;;;18.48;1.80;;;;;;;23.10;58.26;99864.41;7314008;19;130053;-40
2022/07/15 05:49:10;;;;;;;37.42;4.25;;;;;;;23.11;57.95;99858.19;7310653;19;131432;-39
2022/07/15 05:51:37;;;;;;;59.43;6.03;;;;;;;23.10;58.35;99864.41;7308723;19;129072;-39
2022/07/15 05:54:02;;;;;;;21.00;2.15;;;;;;;23.09;58.61;99874.06;7310344;19;130815;-39
2022/07/15 05:56:28;;;;;;;23.77;2.50;;;;;;;23.09;58.24;99862.75;7313235;19;129088;-38
2022/07/15 05:58:53;;;;;;;34.70;3.08;;;;;;;23.10;58.01;99861.78;7309646;19;130262;-40
2022/07/15 06:01:19;;;;;;;17.97;1.97;;;;;;;23.09;58.53;99862.75;7312120;19;128954;-37
2022/07/15 06:03:44;;;;;;;21.92;2.20;;;;;;;23.01;58.03;99858.22;7311654;19;129094;-38
2022/07/15 06:06:10;;;;;;;16.00;1.65;;;;;;;23.09;57.99;99873.22;7313417;19;129406;-39
2022/07/15 06:08:35;;;;;;;22.63;2.38;;;;;;;23.08;58.34;99863.72;7310777;19;129530;-39
2022/07/15 06:11:01;;;;;;;26.17;2.97;;;;;;;23.09;58.27;99865.38;7314960;19;129420;-40
2022/07/15 06:13:26;;;;;;;4.97;0.80;;;;;;;23.09;57.65;99868.81;7307438;19;129582;-39
2022/07/15 06:15:52;;;;;;;16.48;1.70;;;;;;;23.09;58.04;99866.19;7310135;19;130922;-39
2022/07/15 06:18:17;;;;;;;18.73;1.97;;;;;;;23.08;58.27;99868.97;7314177;19;130347;-39
2022/07/15 06:20:43;;;;;;;31.48;3.17;;;;;;;23.09;58.11;99862.75;7311915;19;128812;-38
2022/07/15 06:23:08;;;;;;;5.93;0.80;;;;;;;23.09;57.82;99857.50;7311170;19;129119;-41
2022/07/15 06:25:33;;;;;;;40.80;4.27;;;;;;;23.10;57.88;99872.28;7310817;19;129458;-38
2022/07/15 06:27:59;;;;;;;15.23;1.50;;;;;;;23.07;58.05;99862.88;7311799;19;129633;-38
2022/07/15 06:30:24;;;;;;;7.50;0.95;;;;;;;23.09;58.52;99862.75;7313163;19;129207;-39
2022/07/15 06:32:49;;;;;;;17.60;1.70;;;;;;;23.01;57.80;99857.38;7309455;19;129079;-39
2022/07/15 06:35:15;;;;;;;16.63;1.65;;;;;;;23.07;57.79;99870.75;7313588;19;130030;-39
2022/07/15 06:37:40;;;;;;;24.20;2.60;;;;;;;23.08;57.80;99876.84;7310760;19;129624;-39
2022/07/15 06:40:07;;;;;;;8.82;0.98;;;;;;;23.07;57.95;99872.56;7313866;19;128823;-38
2022/07/15 06:42:32;;;;;;;16.55;1.75;;;;;;;23.07;58.16;99878.63;7308972;19;129122;-39
2022/07/15 06:44:57;;;;;;;16.35;2.05;;;;;;;23.07;58.05;99870.75;7311862;19;130929;-38
2022/07/15 06:47:23;;;;;;;1.88;0.63;;;;;;;23.05;57.96;99867.47;7311109;19;129431;-40
2022/07/15 06:49:51;;;;;;;19.65;1.83;;;;;;;23.07;58.46;99881.25;7312798;19;128868;-39
2022/07/15 06:52:16;;;;;;;22.90;2.55;;;;;;;23.07;58.03;99875.19;7312122;19;129713;-39
2022/07/15 06:54:42;;;;;;;16.95;1.85;;;;;;;23.04;58.09;99870.22;7313291;19;128918;-39
2022/07/15 06:57:08;;;;;;;7.90;1.07;;;;;;;23.05;58.05;99871.88;7310687;19;130508;-40
2022/07/15 06:59:34;;;;;;;15.30;1.63;;;;;;;23.06;57.84;99882.22;7313545;19;129229;-40
2022/07/15 07:01:59;;;;;;;24.93;2.30;;;;;;;23.04;58.49;99876.28;7311773;19;129533;-40
2022/07/15 07:04:25;;;;;;;24.80;2.63;;;;;;;23.06;58.54;99873.53;7307467;19;130119;-40
2022/07/15 07:06:50;;;;;;;21.70;2.00;;;;;;;23.06;58.37;99878.78;7309265;19;132002;-40
2022/07/15 07:09:15;;;;;;;14.60;1.45;;;;;;;23.05;58.31;99882.38;7309453;19;129251;-40
2022/07/15 07:11:41;;;;;;;46.03;4.57;;;;;;;23.05;58.11;99877.13;7310502;19;129401;-40
2022/07/15 07:14:06;;;;;;;16.42;1.67;;;;;;;23.06;58.30;99881.38;7310515;19;130201;-39
2022/07/15 07:16:32;;;;;;;8.95;1.20;;;;;;;23.06;58.66;99889.25;7310457;19;130366;-39
2022/07/15 07:18:58;;;;;;;24.67;2.45;;;;;;;23.03;58.27;99874.66;7312869;19;129068;-40
2022/07/15 07:21:23;;;;;;;20.20;2.17;;;;;;;23.05;58.74;99882.38;7311304;19;129054;-38
2022/07/15 07:23:49;;;;;;;35.38;3.58;;;;;;;23.05;58.07;99882.38;7309066;19;129192;-38
2022/07/15 07:29:45;;;;;;;14.10;1.67;;;;;;;23.02;58.08;99888.72;7331345;19;130705;-70
2022/07/15 07:32:11;;;;;;;44.65;3.80;;;;;;;23.01;57.70;99891.47;7179131;19;3120441;-70
2022/07/15 07:34:36;;;;;;;14.98;1.65;;;;;;;22.99;58.41;99888.19;7346643;19;130552;-71
2022/07/15 07:37:02;;;;;;;26.10;2.50;;;;;;;23.01;58.62;99894.09;7340866;19;129722;-39
2022/07/15 07:39:27;;;;;;;29.05;2.92;;;;;;;23.00;58.34;99888.06;7345547;19;128865;-39
2022/07/15 07:41:53;;;;;;;107.07;11.17;;;;;;;22.99;58.17;99899.50;7345023;19;128905;-40
2022/07/15 07:44:19;;;;;;;16.50;1.63;;;;;;;23.00;58.69;99895.91;7347406;19;130251;-39
2022/07/15 07:46:45;;;;;;;12.75;1.48;;;;;;;23.00;58.15;99884.59;7347145;19;129869;-38
2022/07/15 07:49:12;;;;;;;16.90;1.83;;;;;;;23.00;58.73;99887.22;7340571;19;129052;-39
2022/07/15 07:51:40;;;;;;;15.30;1.63;;;;;;;23.01;58.45;99886.22;7348277;19;130364;-40
2022/07/15 07:54:06;;;;;;;16.38;1.77;;;;;;;23.01;57.92;99881.00;7348900;19;131100;-37
2022/07/15 07:56:31;;;;;;;48.27;4.97;;;;;;;23.01;58.50;99886.22;7345186;19;130268;-39
2022/07/15 07:58:57;;;;;;;17.20;1.80;;;;;;;22.95;58.59;99877.16;7344028;19;129005;-39
2022/07/15 08:01:22;;;;;;;31.27;3.60;;;;;;;23.00;58.30;99881.97;7345396;19;129693;-40
2022/07/15 08:03:47;;;;;;;20.02;2.38;;;;;;;23.01;58.41;99896.72;7345219;19;131393;-36
2022/07/15 08:06:13;;;;;;;41.60;4.45;;;;;;;23.01;58.35;99892.31;7348247;19;129978;-39
2022/07/15 08:08:38;;;;;;;12.90;1.58;;;;;;;23.01;58.02;99881.81;7344363;19;130167;-41
2022/07/15 08:11:04;;;;;;;17.83;1.92;;;;;;;23.03;57.95;99886.94;7347863;19;128993;-37
2022/07/15 08:13:30;;;;;;;22.30;2.25;;;;;;;23.04;58.31;99885.94;7345304;19;129958;-38
2022/07/15 08:15:56;;;;;;;19.88;1.90;;;;;;;23.02;58.33;99887.91;7346016;19;130310;-38
2022/07/15 08:18:22;;;;;;;20.95;2.08;;;;;;;23.02;58.34;99882.66;7346419;19;128971;-39
2022/07/15 08:20:47;;;;;;;17.17;1.73;;;;;;;23.03;58.25;99884.31;7346979;19;129420;-37
2022/07/15 08:23:14;;;;;;;19.75;2.10;;;;;;;23.03;58.41;99884.31;7346887;19;130257;-41
2022/07/15 08:25:39;;;;;;;18.85;2.03;;;;;;;23.01;58.16;99873.13;7345316;19;131235;-39
2022/07/15 08:28:06;;;;;;;20.92;2.33;;;;;;;23.02;57.98;99874.78;7345164;19;129258;-38
2022/07/15 08:30:33;;;;;;;17.65;1.70;;;;;;;22.91;57.90;99864.44;7346618;19;129485;-38
2022/07/15 08:32:59;;;;;;;16.67;2.13;;;;;;;23.02;58.10;99878.22;7342498;19;130277;-38
2022/07/15 08:35:26;;;;;;;39.17;3.43;;;;;;;23.01;58.51;99876.59;7342792;19;129390;-39
2022/07/15 08:37:51;;;;;;;20.13;2.35;;;;;;;23.01;58.12;99879.22;7343205;19;131085;-39
2022/07/15 08:40:17;;;;;;;21.80;2.42;;;;;;;23.01;58.54;99875.75;7326239;19;129205;-39
2022/07/15 08:42:45;;;;;;;21.17;1.93;;;;;;;23.01;58.72;99873.97;7316285;19;130125;-38
2022/07/15 08:45:12;;;;;;;7.57;0.93;;;;;;;23.00;58.07;99879.34;7316845;19;131333;-38
2022/07/15 08:47:39;;;;;;;;;;;;;;;23.01;60.80;99867.88;7317530;19;131301;-39
2022/07/15 08:50:05;;;;;;;15.73;1.60;;;;;;;23.02;58.44;99882.66;7315504;19;129097;-39
2022/07/15 08:52:34;;;;;;;26.05;2.90;;;;;;;23.01;59.21;99881.81;7316429;19;130612;-38
2022/07/15 08:54:59;;;;;;;26.15;2.85;;;;;;;23.00;58.57;99879.34;7315528;19;129790;-38
2022/07/15 08:57:25;;;;;;;27.93;3.07;;;;;;;23.02;58.19;99893.16;7314145;19;130754;-40
2022/07/15 08:59:54;;;;;;;16.15;1.63;;;;;;;23.02;59.48;99882.66;7315095;19;129111;-39
2022/07/15 09:02:19;;;;;;;50.65;4.90;;;;;;;23.01;58.55;99881.00;7312324;19;130261;-40
2022/07/15 09:05:21;;;;;;;21.27;2.05;;;;;;;23.02;60.69;99887.91;7314879;19;130371;-39
2022/07/15 09:07:53;;;;;;;27.63;3.22;;;;;;;22.92;59.27;99872.16;7313835;19;129045;-38
2022/07/15 09:10:24;;;;;;;18.73;1.98;;;;;;;23.01;57.98;99881.81;7314806;19;128888;-40
2022/07/15 09:12:52;;;;;;;34.70;3.55;;;;;;;22.99;58.45;99880.34;7315389;19;129106;-39
2022/07/15 09:15:38;;;;;;;10.90;1.45;;;;;;;22.93;60.75;99867.75;7316318;19;130835;-38
2022/07/15 09:18:15;;;;;;;8.90;1.05;;;;;;;23.01;58.52;99886.22;7314894;19;129256;-39
2022/07/15 09:20:43;;;;;;;16.98;1.70;;;;;;;23.00;58.83;99879.34;7315596;19;129710;-39
2022/07/15 09:23:09;;;;;;;16.50;1.60;;;;;;;22.92;58.09;99874.78;7317917;19;129537;-39
2022/07/15 09:25:35;;;;;;;;;;;;;;;23.04;60.86;99880.69;7318284;19;130414;-39
2022/07/15 09:28:03;;;;;;;18.02;1.98;;;;;;;23.01;58.58;99870.50;7316951;19;129010;-41
2022/07/15 09:36:06;;;;;;;28.35;2.90;;;;;;;22.98;59.84;99886.53;7310246;19;129319;-39
2022/07/15 09:38:42;;;;;;;18.10;1.77;;;;;;;22.98;59.87;99881.28;7311091;19;129152;-41
2022/07/15 09:41:38;;;;;;;28.27;2.85;;;;;;;22.99;60.71;99877.72;7312218;19;129189;-42
2022/07/15 09:44:06;;;;;;;18.02;1.70;;;;;;;22.98;57.95;99882.13;7314111;19;129148;-41
2022/07/15 09:46:43;;;;;;;15.13;1.70;;;;;;;22.98;60.72;99876.03;7315396;19;130309;-39
2022/07/15 09:49:14;;;;;;;13.40;1.90;;;;;;;22.89;59.64;99855.94;7312465;19;129121;-38
2022/07/15 09:51:55;;;;;;;19.08;2.03;;;;;;;22.99;60.76;99875.09;7314430;19;128833;-40
2022/07/15 09:54:28;;;;;;;10.55;1.23;;;;;;;22.98;59.48;99860.31;7315008;19;130206;-38
2022/07/15 09:56:53;;;;;;;15.93;1.63;;;;;;;22.99;58.81;99877.72;7317046;19;130408;-38
2022/07/15 09:59:19;;;;;;;21.63;2.20;;;;;;;22.97;58.17;99869.94;7313244;19;130028;-38
2022/07/15 10:01:47;;;;;;;18.73;1.95;;;;;;;22.89;58.07;99853.31;7314023;19;129402;-39
2022/07/15 10:04:16;;;;;;;27.60;2.38;;;;;;;22.99;59.16;99872.47;7315066;19;130447;-40
2022/07/15 10:06:42;;;;;;;27.02;2.92;;;;;;;22.99;58.41;99867.22;7314191;19;130035;-40
2022/07/15 10:09:09;;;;;;;19.65;1.80;;;;;;;22.98;58.41;99876.03;7312878;19;128893;-42
2022/07/15 10:11:38;;;;;;;8.68;1.48;;;;;;;22.98;59.31;99866.38;7315462;19;128900;-39
2022/07/15 10:14:37;;;;;;;14.63;1.58;;;;;;;22.99;60.74;99872.47;7312823;19;131486;-37
2022/07/15 10:17:21;;;;;;;11.40;1.38;;;;;;;22.99;60.41;99875.09;7314620;19;129900;-39
2022/07/15 10:19:57;;;;;;;34.65;3.50;;;;;;;22.98;58.88;99881.28;7313101;19;129247;-39
2022/07/15 10:22:51;;;;;;;42.72;4.35;;;;;;;22.98;60.64;99876.88;7312272;19;129540;-40
2022/07/15 10:25:36;;;;;;;15.75;1.85;;;;;;;22.98;60.63;99882.13;7316003;19;129680;-39
2022/07/15 10:28:15;;;;;;;20.95;2.05;;;;;;;22.97;59.93;99877.00;7312235;19;130944;-39
2022/07/15 10:30:43;;;;;;;45.85;4.60;;;;;;;22.97;58.74;99877.81;7309670;19;130293;-40
2022/07/15 10:33:13;;;;;;;21.05;2.22;;;;;;;22.90;58.49;99862.81;7313990;19;129125;-39
2022/07/15 10:35:53;;;;;;;22.90;2.33;;;;;;;22.95;61.03;99871.06;7305142;19;130762;-38
2022/07/15 10:38:32;;;;;;;24.27;2.42;;;;;;;22.96;59.98;99872.72;7312788;19;129630;-38
2022/07/15 10:40:57;;;;;;;21.85;2.45;;;;;;;22.95;58.46;99868.47;7310034;19;129099;-39
2022/07/15 10:43:45;;;;;;;19.65;1.92;;;;;;;22.97;61.14;99879.63;7314068;19;130781;-38
2022/07/15 10:46:17;;;;;;;33.88;3.53;;;;;;;22.97;59.67;99866.53;7310055;19;131132;-41
2022/07/15 10:48:43;;;;;;;17.50;1.92;;;;;;;22.88;58.09;99856.88;7309245;19;130544;-39
2022/07/15 10:51:09;;;;;;;22.00;2.25;;;;;;;22.97;58.25;99863.91;7311722;19;129421;-38
2022/07/15 10:53:47;;;;;;;23.02;2.45;;;;;;;22.95;59.99;99865.84;7314311;19;129013;-38
2022/07/15 10:56:26;;;;;;;;;;;;;;;23.01;60.89;99868.72;7309427;19;130232;-37
2022/07/15 10:59:07;;;;;;;16.90;1.73;;;;;;;22.98;61.04;99874.25;7313675;19;130266;-37
2022/07/15 11:01:33;;;;;;;35.88;3.85;;;;;;;22.99;57.99;99864.59;7307071;19;129261;-39
2022/07/15 11:04:13;;;;;;;24.67;2.55;;;;;;;22.98;60.31;99865.53;7309947;19;131235;-37
2022/07/15 11:07:04;;;;;;;18.85;1.77;;;;;;;22.97;60.60;99858.66;7311595;19;130204;-38
2022/07/15 11:09:49;;;;;;;15.25;1.63;;;;;;;22.89;60.50;99845.44;7310487;19;130363;-38
2022/07/15 11:12:20;;;;;;;18.63;1.88;;;;;;;22.95;58.46;99871.06;7311186;19;129135;-40
2022/07/15 11:14:52;;;;;;;19.80;2.22;;;;;;;22.95;60.09;99857.97;7309059;19;129849;-39
2022/07/15 11:17:25;;;;;;;16.75;1.90;;;;;;;22.96;59.64;99870.09;7310864;19;128995;-38
2022/07/15 11:19:54;;;;;;;20.40;2.00;;;;;;;22.97;59.14;99863.91;7309101;19;130240;-40
2022/07/15 11:22:21;;;;;;;33.40;2.88;;;;;;;22.96;58.78;99864.84;7311710;19;130050;-39
2022/07/15 11:24:47;;;;;;;23.80;2.58;;;;;;;22.97;58.65;99863.91;7312285;19;129099;-40
2022/07/15 11:27:13;;;;;;;25.57;2.73;;;;;;;22.97;58.35;99863.91;7311102;19;129506;-41
2022/07/15 11:29:52;;;;;;;20.75;1.98;;;;;;;22.97;60.74;99856.03;7310791;19;130324;-39
2022/07/15 11:32:19;;;;;;;18.60;1.90;;;;;;;22.95;58.58;99855.34;7310133;19;129483;-39